sensor_id;sensor_type;location;lat;lon;timestamp;temperature;humidity
75719;DHT22;64340;48.534;-3.036;2023-08-06T00:01:14;18.40;70.80
75719;DHT22;64340;48.534;-3.036;2023-08-06T00:03:40;18.40;70.90
75719;DHT22;64340;48.534;-3.036;2023-08-06T00:06:05;18.40;70.90
75719;DHT22;64340;48.534;-3.036;2023-08-06T00:08:31;18.40;70.90
75719;DHT22;64340;48.534;-3.036;2023-08-06T00:10:57;18.40;70.90
75719;DHT22;64340;48.534;-3.036;2023-08-06T00:13:22;18.40;70.90
75719;DHT22;64340;48.534;-3.036;2023-08-06T00:15:48;18.40;70.90
75719;DHT22;64340;48.534;-3.036;2023-08-06T00:18:14;18.40;71.00
75719;DHT22;64340;48.534;-3.036;2023-08-06T00:20:39;18.40;71.00
75719;DHT22;64340;48.534;-3.036;2023-08-06T00:23:06;18.40;71.00
75719;DHT22;64340;48.534;-3.036;2023-08-06T00:25:31;18.40;71.00
75719;DHT22;64340;48.534;-3.036;2023-08-06T00:27:57;18.40;71.00
75719;DHT22;64340;48.534;-3.036;2023-08-06T00:30:22;18.40;71.10
75719;DHT22;64340;48.534;-3.036;2023-08-06T00:32:48;18.40;71.10
75719;DHT22;64340;48.534;-3.036;2023-08-06T00:35:14;18.30;71.10
75719;DHT22;64340;48.534;-3.036;2023-08-06T00:37:40;18.30;71.10
75719;DHT22;64340;48.534;-3.036;2023-08-06T00:40:06;18.40;71.10
75719;DHT22;64340;48.534;-3.036;2023-08-06T00:42:32;18.30;71.20
75719;DHT22;64340;48.534;-3.036;2023-08-06T00:45:00;18.30;71.10
75719;DHT22;64340;48.534;-3.036;2023-08-06T00:47:25;18.40;71.10
75719;DHT22;64340;48.534;-3.036;2023-08-06T00:49:51;18.30;71.10
75719;DHT22;64340;48.534;-3.036;2023-08-06T00:52:17;18.30;71.10
75719;DHT22;64340;48.534;-3.036;2023-08-06T00:54:42;18.30;71.00
75719;DHT22;64340;48.534;-3.036;2023-08-06T00:57:08;18.30;71.10
75719;DHT22;64340;48.534;-3.036;2023-08-06T00:59:34;18.30;71.10
75719;DHT22;64340;48.534;-3.036;2023-08-06T01:02:00;18.30;71.00
75719;DHT22;64340;48.534;-3.036;2023-08-06T01:04:26;18.30;71.00
75719;DHT22;64340;48.534;-3.036;2023-08-06T01:06:54;18.30;71.10
75719;DHT22;64340;48.534;-3.036;2023-08-06T01:09:29;18.30;71.10
75719;DHT22;64340;48.534;-3.036;2023-08-06T01:14:33;18.30;71.10
75719;DHT22;64340;48.534;-3.036;2023-08-06T01:17:01;18.30;71.10
75719;DHT22;64340;48.534;-3.036;2023-08-06T01:19:26;18.30;71.10
75719;DHT22;64340;48.534;-3.036;2023-08-06T01:21:52;18.30;71.20
75719;DHT22;64340;48.534;-3.036;2023-08-06T01:24:18;18.30;71.30
75719;DHT22;64340;48.534;-3.036;2023-08-06T01:29:29;18.30;71.30
75719;DHT22;64340;48.534;-3.036;2023-08-06T01:31:56;18.30;71.30
75719;DHT22;64340;48.534;-3.036;2023-08-06T01:34:27;18.30;71.20
75719;DHT22;64340;48.534;-3.036;2023-08-06T01:36:54;18.30;71.30
75719;DHT22;64340;48.534;-3.036;2023-08-06T01:39:19;18.20;71.30
75719;DHT22;64340;48.534;-3.036;2023-08-06T01:41:47;18.20;71.40
75719;DHT22;64340;48.534;-3.036;2023-08-06T01:44:12;18.20;71.20
75719;DHT22;64340;48.534;-3.036;2023-08-06T01:46:38;18.20;71.30
75719;DHT22;64340;48.534;-3.036;2023-08-06T01:49:03;18.20;71.40
75719;DHT22;64340;48.534;-3.036;2023-08-06T01:51:29;18.20;71.30
75719;DHT22;64340;48.534;-3.036;2023-08-06T01:53:54;18.20;71.40
75719;DHT22;64340;48.534;-3.036;2023-08-06T01:56:20;18.20;71.40
75719;DHT22;64340;48.534;-3.036;2023-08-06T01:58:46;18.20;71.40
75719;DHT22;64340;48.534;-3.036;2023-08-06T02:01:11;18.20;71.40
75719;DHT22;64340;48.534;-3.036;2023-08-06T02:03:37;18.20;71.30
75719;DHT22;64340;48.534;-3.036;2023-08-06T02:06:02;18.20;71.30
75719;DHT22;64340;48.534;-3.036;2023-08-06T02:08:28;18.20;71.30
75719;DHT22;64340;48.534;-3.036;2023-08-06T02:10:53;18.20;71.40
75719;DHT22;64340;48.534;-3.036;2023-08-06T02:13:19;18.20;71.30
75719;DHT22;64340;48.534;-3.036;2023-08-06T02:15:45;18.20;71.30
75719;DHT22;64340;48.534;-3.036;2023-08-06T02:18:15;18.20;71.30
75719;DHT22;64340;48.534;-3.036;2023-08-06T02:20:41;18.20;71.30
75719;DHT22;64340;48.534;-3.036;2023-08-06T02:23:07;18.20;71.40
75719;DHT22;64340;48.534;-3.036;2023-08-06T02:25:33;18.20;71.40
75719;DHT22;64340;48.534;-3.036;2023-08-06T02:27:58;18.20;71.40
75719;DHT22;64340;48.534;-3.036;2023-08-06T02:30:24;18.20;71.40
75719;DHT22;64340;48.534;-3.036;2023-08-06T02:32:50;18.20;71.50
75719;DHT22;64340;48.534;-3.036;2023-08-06T02:35:15;18.20;71.40
75719;DHT22;64340;48.534;-3.036;2023-08-06T02:37:41;18.20;71.50
75719;DHT22;64340;48.534;-3.036;2023-08-06T02:40:07;18.20;71.50
75719;DHT22;64340;48.534;-3.036;2023-08-06T02:42:32;18.20;71.40
75719;DHT22;64340;48.534;-3.036;2023-08-06T02:44:58;18.20;71.50
75719;DHT22;64340;48.534;-3.036;2023-08-06T02:47:24;18.20;71.50
75719;DHT22;64340;48.534;-3.036;2023-08-06T02:49:49;18.10;71.50
75719;DHT22;64340;48.534;-3.036;2023-08-06T02:52:15;18.10;71.50
75719;DHT22;64340;48.534;-3.036;2023-08-06T02:54:40;18.10;71.50
75719;DHT22;64340;48.534;-3.036;2023-08-06T02:57:06;18.10;71.50
75719;DHT22;64340;48.534;-3.036;2023-08-06T02:59:32;18.10;71.50
75719;DHT22;64340;48.534;-3.036;2023-08-06T03:01:57;18.10;71.50
75719;DHT22;64340;48.534;-3.036;2023-08-06T03:04:23;18.10;71.60
75719;DHT22;64340;48.534;-3.036;2023-08-06T03:06:49;18.10;71.60
75719;DHT22;64340;48.534;-3.036;2023-08-06T03:09:15;18.10;71.60
75719;DHT22;64340;48.534;-3.036;2023-08-06T03:11:41;18.10;71.50
75719;DHT22;64340;48.534;-3.036;2023-08-06T03:14:06;18.10;71.70
75719;DHT22;64340;48.534;-3.036;2023-08-06T03:16:32;18.10;71.60
75719;DHT22;64340;48.534;-3.036;2023-08-06T03:18:57;18.10;71.50
75719;DHT22;64340;48.534;-3.036;2023-08-06T03:21:23;18.10;71.50
75719;DHT22;64340;48.534;-3.036;2023-08-06T03:23:48;18.10;71.50
75719;DHT22;64340;48.534;-3.036;2023-08-06T03:26:14;18.10;71.50
75719;DHT22;64340;48.534;-3.036;2023-08-06T03:28:40;18.10;71.50
75719;DHT22;64340;48.534;-3.036;2023-08-06T03:31:05;18.10;71.60
75719;DHT22;64340;48.534;-3.036;2023-08-06T03:33:31;18.10;71.50
75719;DHT22;64340;48.534;-3.036;2023-08-06T03:35:56;18.10;71.40
75719;DHT22;64340;48.534;-3.036;2023-08-06T03:38:22;18.10;71.50
75719;DHT22;64340;48.534;-3.036;2023-08-06T03:40:51;18.10;71.60
75719;DHT22;64340;48.534;-3.036;2023-08-06T03:43:16;18.10;71.50
75719;DHT22;64340;48.534;-3.036;2023-08-06T03:45:42;18.10;71.60
75719;DHT22;64340;48.534;-3.036;2023-08-06T03:48:08;18.10;71.60
75719;DHT22;64340;48.534;-3.036;2023-08-06T03:50:33;18.10;71.60
75719;DHT22;64340;48.534;-3.036;2023-08-06T03:52:59;18.10;71.60
75719;DHT22;64340;48.534;-3.036;2023-08-06T03:55:25;18.10;71.60
75719;DHT22;64340;48.534;-3.036;2023-08-06T03:57:50;18.10;71.60
75719;DHT22;64340;48.534;-3.036;2023-08-06T04:00:16;18.00;71.60
75719;DHT22;64340;48.534;-3.036;2023-08-06T04:02:42;18.10;71.60
75719;DHT22;64340;48.534;-3.036;2023-08-06T04:05:07;18.10;71.70
75719;DHT22;64340;48.534;-3.036;2023-08-06T04:07:33;18.00;71.60
75719;DHT22;64340;48.534;-3.036;2023-08-06T04:09:59;18.10;71.60
75719;DHT22;64340;48.534;-3.036;2023-08-06T04:12:25;18.00;71.60
75719;DHT22;64340;48.534;-3.036;2023-08-06T04:14:51;18.00;71.70
75719;DHT22;64340;48.534;-3.036;2023-08-06T04:17:17;18.00;71.70
75719;DHT22;64340;48.534;-3.036;2023-08-06T04:19:46;18.00;71.60
75719;DHT22;64340;48.534;-3.036;2023-08-06T04:22:12;18.00;71.60
75719;DHT22;64340;48.534;-3.036;2023-08-06T04:24:37;18.00;71.60
75719;DHT22;64340;48.534;-3.036;2023-08-06T04:27:03;18.00;71.70
75719;DHT22;64340;48.534;-3.036;2023-08-06T04:29:29;18.00;71.70
75719;DHT22;64340;48.534;-3.036;2023-08-06T04:31:54;18.00;71.70
75719;DHT22;64340;48.534;-3.036;2023-08-06T04:34:20;18.00;71.60
75719;DHT22;64340;48.534;-3.036;2023-08-06T04:36:46;18.00;71.60
75719;DHT22;64340;48.534;-3.036;2023-08-06T04:39:11;18.00;71.70
75719;DHT22;64340;48.534;-3.036;2023-08-06T04:41:37;18.00;71.70
75719;DHT22;64340;48.534;-3.036;2023-08-06T04:44:02;18.00;71.60
75719;DHT22;64340;48.534;-3.036;2023-08-06T04:46:29;18.00;71.70
75719;DHT22;64340;48.534;-3.036;2023-08-06T04:48:55;18.00;71.60
75719;DHT22;64340;48.534;-3.036;2023-08-06T04:51:20;18.00;71.60
75719;DHT22;64340;48.534;-3.036;2023-08-06T04:53:46;18.00;71.60
75719;DHT22;64340;48.534;-3.036;2023-08-06T04:56:11;18.00;71.60
75719;DHT22;64340;48.534;-3.036;2023-08-06T04:58:37;18.00;71.60
75719;DHT22;64340;48.534;-3.036;2023-08-06T05:01:02;18.00;71.50
75719;DHT22;64340;48.534;-3.036;2023-08-06T05:03:28;18.00;71.60
75719;DHT22;64340;48.534;-3.036;2023-08-06T05:05:54;18.00;71.60
75719;DHT22;64340;48.534;-3.036;2023-08-06T05:08:20;18.00;71.60
75719;DHT22;64340;48.534;-3.036;2023-08-06T05:10:46;18.00;71.60
75719;DHT22;64340;48.534;-3.036;2023-08-06T05:13:11;18.00;71.60
75719;DHT22;64340;48.534;-3.036;2023-08-06T05:15:37;18.00;71.50
75719;DHT22;64340;48.534;-3.036;2023-08-06T05:18:05;18.00;71.60
75719;DHT22;64340;48.534;-3.036;2023-08-06T05:20:30;18.00;71.50
75719;DHT22;64340;48.534;-3.036;2023-08-06T05:22:56;18.00;71.50
75719;DHT22;64340;48.534;-3.036;2023-08-06T05:25:22;18.00;71.50
75719;DHT22;64340;48.534;-3.036;2023-08-06T05:27:47;18.00;71.50
75719;DHT22;64340;48.534;-3.036;2023-08-06T05:30:13;18.00;71.50
75719;DHT22;64340;48.534;-3.036;2023-08-06T05:32:38;18.00;71.50
75719;DHT22;64340;48.534;-3.036;2023-08-06T05:35:04;18.00;71.50
75719;DHT22;64340;48.534;-3.036;2023-08-06T05:37:30;18.00;71.50
75719;DHT22;64340;48.534;-3.036;2023-08-06T05:39:55;18.10;71.40
75719;DHT22;64340;48.534;-3.036;2023-08-06T05:42:21;18.00;71.40
75719;DHT22;64340;48.534;-3.036;2023-08-06T05:44:46;18.00;71.40
75719;DHT22;64340;48.534;-3.036;2023-08-06T05:47:12;18.10;71.40
75719;DHT22;64340;48.534;-3.036;2023-08-06T05:49:38;18.10;71.30
75719;DHT22;64340;48.534;-3.036;2023-08-06T05:52:03;18.10;71.20
75719;DHT22;64340;48.534;-3.036;2023-08-06T05:54:31;18.10;71.10
75719;DHT22;64340;48.534;-3.036;2023-08-06T05:56:57;18.10;71.20
75719;DHT22;64340;48.534;-3.036;2023-08-06T05:59:22;18.10;71.20
75719;DHT22;64340;48.534;-3.036;2023-08-06T06:01:48;18.20;71.20
75719;DHT22;64340;48.534;-3.036;2023-08-06T06:04:14;18.20;71.20
75719;DHT22;64340;48.534;-3.036;2023-08-06T06:06:39;18.10;71.20
75719;DHT22;64340;48.534;-3.036;2023-08-06T06:09:07;18.20;71.20
75719;DHT22;64340;48.534;-3.036;2023-08-06T06:11:32;18.20;71.20
75719;DHT22;64340;48.534;-3.036;2023-08-06T06:13:58;18.20;71.20
75719;DHT22;64340;48.534;-3.036;2023-08-06T06:16:23;18.20;71.20
75719;DHT22;64340;48.534;-3.036;2023-08-06T06:18:49;18.20;71.10
75719;DHT22;64340;48.534;-3.036;2023-08-06T06:21:15;18.20;71.10
75719;DHT22;64340;48.534;-3.036;2023-08-06T06:23:40;18.20;71.10
75719;DHT22;64340;48.534;-3.036;2023-08-06T06:26:06;18.20;71.10
75719;DHT22;64340;48.534;-3.036;2023-08-06T06:28:32;18.20;71.10
75719;DHT22;64340;48.534;-3.036;2023-08-06T06:31:00;18.20;71.10
75719;DHT22;64340;48.534;-3.036;2023-08-06T06:33:27;18.20;71.10
75719;DHT22;64340;48.534;-3.036;2023-08-06T06:35:52;18.20;71.10
75719;DHT22;64340;48.534;-3.036;2023-08-06T06:38:18;18.20;71.10
75719;DHT22;64340;48.534;-3.036;2023-08-06T06:40:44;18.20;71.00
75719;DHT22;64340;48.534;-3.036;2023-08-06T06:43:09;18.20;71.00
75719;DHT22;64340;48.534;-3.036;2023-08-06T06:45:35;18.20;71.00
75719;DHT22;64340;48.534;-3.036;2023-08-06T06:48:00;18.20;71.00
75719;DHT22;64340;48.534;-3.036;2023-08-06T06:50:26;18.30;70.90
75719;DHT22;64340;48.534;-3.036;2023-08-06T06:52:52;18.30;70.90
75719;DHT22;64340;48.534;-3.036;2023-08-06T06:55:17;18.30;70.90
75719;DHT22;64340;48.534;-3.036;2023-08-06T06:57:43;18.30;70.80
75719;DHT22;64340;48.534;-3.036;2023-08-06T07:00:08;18.30;70.80
75719;DHT22;64340;48.534;-3.036;2023-08-06T07:02:34;18.30;70.70
75719;DHT22;64340;48.534;-3.036;2023-08-06T07:05:00;18.30;70.70
75719;DHT22;64340;48.534;-3.036;2023-08-06T07:07:25;18.30;70.80
75719;DHT22;64340;48.534;-3.036;2023-08-06T07:09:51;18.40;70.70
75719;DHT22;64340;48.534;-3.036;2023-08-06T07:12:16;18.40;70.70
75719;DHT22;64340;48.534;-3.036;2023-08-06T07:14:42;18.40;70.70
75719;DHT22;64340;48.534;-3.036;2023-08-06T07:17:07;18.40;70.70
75719;DHT22;64340;48.534;-3.036;2023-08-06T07:19:33;18.40;70.70
75719;DHT22;64340;48.534;-3.036;2023-08-06T07:21:59;18.40;70.70
75719;DHT22;64340;48.534;-3.036;2023-08-06T07:24:24;18.40;70.60
75719;DHT22;64340;48.534;-3.036;2023-08-06T07:26:50;18.40;70.60
75719;DHT22;64340;48.534;-3.036;2023-08-06T07:29:17;18.40;70.60
75719;DHT22;64340;48.534;-3.036;2023-08-06T07:31:46;18.40;70.60
75719;DHT22;64340;48.534;-3.036;2023-08-06T07:34:12;18.40;70.60
75719;DHT22;64340;48.534;-3.036;2023-08-06T07:36:37;18.40;70.60
75719;DHT22;64340;48.534;-3.036;2023-08-06T07:39:03;18.40;70.60
75719;DHT22;64340;48.534;-3.036;2023-08-06T07:41:31;18.40;70.60
75719;DHT22;64340;48.534;-3.036;2023-08-06T07:43:57;18.40;70.60
75719;DHT22;64340;48.534;-3.036;2023-08-06T07:46:22;18.40;70.50
75719;DHT22;64340;48.534;-3.036;2023-08-06T07:48:48;18.40;70.50
75719;DHT22;64340;48.534;-3.036;2023-08-06T07:51:13;18.40;70.50
75719;DHT22;64340;48.534;-3.036;2023-08-06T07:53:39;18.50;70.50
75719;DHT22;64340;48.534;-3.036;2023-08-06T07:56:05;18.50;70.50
75719;DHT22;64340;48.534;-3.036;2023-08-06T07:58:30;18.50;70.40
75719;DHT22;64340;48.534;-3.036;2023-08-06T08:00:57;18.50;70.30
75719;DHT22;64340;48.534;-3.036;2023-08-06T08:03:22;18.50;70.40
75719;DHT22;64340;48.534;-3.036;2023-08-06T08:05:48;18.60;70.30
75719;DHT22;64340;48.534;-3.036;2023-08-06T08:08:13;18.60;70.20
75719;DHT22;64340;48.534;-3.036;2023-08-06T08:10:39;18.60;70.00
75719;DHT22;64340;48.534;-3.036;2023-08-06T08:13:05;18.60;70.10
75719;DHT22;64340;48.534;-3.036;2023-08-06T08:15:31;18.60;70.10
75719;DHT22;64340;48.534;-3.036;2023-08-06T08:17:57;18.60;70.10
75719;DHT22;64340;48.534;-3.036;2023-08-06T08:20:23;18.60;70.10
75719;DHT22;64340;48.534;-3.036;2023-08-06T08:22:49;18.60;70.10
75719;DHT22;64340;48.534;-3.036;2023-08-06T08:25:15;18.60;70.00
75719;DHT22;64340;48.534;-3.036;2023-08-06T08:27:40;18.60;69.90
75719;DHT22;64340;48.534;-3.036;2023-08-06T08:30:06;18.60;70.00
75719;DHT22;64340;48.534;-3.036;2023-08-06T08:32:32;18.60;70.00
75719;DHT22;64340;48.534;-3.036;2023-08-06T08:34:57;18.60;69.90
75719;DHT22;64340;48.534;-3.036;2023-08-06T08:37:23;18.60;69.90
75719;DHT22;64340;48.534;-3.036;2023-08-06T08:39:49;18.60;69.90
75719;DHT22;64340;48.534;-3.036;2023-08-06T08:42:14;18.70;69.80
75719;DHT22;64340;48.534;-3.036;2023-08-06T08:44:40;18.70;69.50
75719;DHT22;64340;48.534;-3.036;2023-08-06T08:47:07;18.70;69.60
75719;DHT22;64340;48.534;-3.036;2023-08-06T08:49:34;18.70;69.60
75719;DHT22;64340;48.534;-3.036;2023-08-06T08:52:00;18.70;69.60
75719;DHT22;64340;48.534;-3.036;2023-08-06T08:54:27;18.70;69.70
75719;DHT22;64340;48.534;-3.036;2023-08-06T08:56:54;18.70;69.50
75719;DHT22;64340;48.534;-3.036;2023-08-06T08:59:20;18.70;69.50
75719;DHT22;64340;48.534;-3.036;2023-08-06T09:01:46;18.80;69.50
75719;DHT22;64340;48.534;-3.036;2023-08-06T09:04:17;18.80;69.40
75719;DHT22;64340;48.534;-3.036;2023-08-06T09:06:42;18.80;69.40
75719;DHT22;64340;48.534;-3.036;2023-08-06T09:09:09;18.80;69.40
75719;DHT22;64340;48.534;-3.036;2023-08-06T09:11:39;18.80;69.40
75719;DHT22;64340;48.534;-3.036;2023-08-06T09:14:06;18.80;69.40
75719;DHT22;64340;48.534;-3.036;2023-08-06T09:16:36;18.80;69.50
75719;DHT22;64340;48.534;-3.036;2023-08-06T09:19:09;18.70;69.40
75719;DHT22;64340;48.534;-3.036;2023-08-06T09:21:40;18.80;69.40
75719;DHT22;64340;48.534;-3.036;2023-08-06T09:24:09;18.80;69.30
75719;DHT22;64340;48.534;-3.036;2023-08-06T09:26:39;18.80;69.40
75719;DHT22;64340;48.534;-3.036;2023-08-06T09:29:05;18.80;69.30
75719;DHT22;64340;48.534;-3.036;2023-08-06T09:31:41;18.80;69.40
75719;DHT22;64340;48.534;-3.036;2023-08-06T09:34:14;18.80;69.50
75719;DHT22;64340;48.534;-3.036;2023-08-06T09:36:41;18.80;69.50
75719;DHT22;64340;48.534;-3.036;2023-08-06T09:39:16;18.70;69.50
75719;DHT22;64340;48.534;-3.036;2023-08-06T09:41:42;18.80;69.50
75719;DHT22;64340;48.534;-3.036;2023-08-06T09:44:26;18.80;69.40
75719;DHT22;64340;48.534;-3.036;2023-08-06T09:46:53;18.90;69.20
75719;DHT22;64340;48.534;-3.036;2023-08-06T09:49:20;18.90;69.20
75719;DHT22;64340;48.534;-3.036;2023-08-06T09:51:48;18.90;69.30
75719;DHT22;64340;48.534;-3.036;2023-08-06T09:54:17;18.90;69.20
75719;DHT22;64340;48.534;-3.036;2023-08-06T09:56:44;18.80;69.30
75719;DHT22;64340;48.534;-3.036;2023-08-06T09:59:09;18.90;69.30
75719;DHT22;64340;48.534;-3.036;2023-08-06T10:01:36;18.90;69.20
75719;DHT22;64340;48.534;-3.036;2023-08-06T10:04:03;18.90;69.20
75719;DHT22;64340;48.534;-3.036;2023-08-06T10:06:29;18.90;69.10
75719;DHT22;64340;48.534;-3.036;2023-08-06T10:08:55;19.00;69.00
75719;DHT22;64340;48.534;-3.036;2023-08-06T10:11:24;18.90;69.10
75719;DHT22;64340;48.534;-3.036;2023-08-06T10:13:55;18.90;69.20
75719;DHT22;64340;48.534;-3.036;2023-08-06T10:16:22;18.90;69.20
75719;DHT22;64340;48.534;-3.036;2023-08-06T10:18:48;18.90;69.20
75719;DHT22;64340;48.534;-3.036;2023-08-06T10:21:14;18.90;69.20
75719;DHT22;64340;48.534;-3.036;2023-08-06T10:23:41;18.90;69.20
75719;DHT22;64340;48.534;-3.036;2023-08-06T10:26:07;19.00;69.00
75719;DHT22;64340;48.534;-3.036;2023-08-06T10:28:36;19.00;68.90
75719;DHT22;64340;48.534;-3.036;2023-08-06T10:31:02;19.00;68.90
75719;DHT22;64340;48.534;-3.036;2023-08-06T10:33:46;19.00;69.00
75719;DHT22;64340;48.534;-3.036;2023-08-06T10:36:13;18.90;69.20
75719;DHT22;64340;48.534;-3.036;2023-08-06T10:38:46;18.90;69.20
75719;DHT22;64340;48.534;-3.036;2023-08-06T10:41:27;18.90;69.10
75719;DHT22;64340;48.534;-3.036;2023-08-06T10:44:05;18.90;69.10
75719;DHT22;64340;48.534;-3.036;2023-08-06T10:46:30;18.90;69.10
75719;DHT22;64340;48.534;-3.036;2023-08-06T10:48:56;19.00;69.10
75719;DHT22;64340;48.534;-3.036;2023-08-06T10:51:21;19.00;69.00
75719;DHT22;64340;48.534;-3.036;2023-08-06T10:53:49;19.00;69.00
75719;DHT22;64340;48.534;-3.036;2023-08-06T10:56:15;19.00;69.00
75719;DHT22;64340;48.534;-3.036;2023-08-06T10:58:44;18.90;69.00
75719;DHT22;64340;48.534;-3.036;2023-08-06T11:01:10;18.90;69.10
75719;DHT22;64340;48.534;-3.036;2023-08-06T11:03:36;18.90;69.10
75719;DHT22;64340;48.534;-3.036;2023-08-06T11:06:02;18.90;69.10
75719;DHT22;64340;48.534;-3.036;2023-08-06T11:08:29;19.00;69.00
75719;DHT22;64340;48.534;-3.036;2023-08-06T11:10:54;19.00;68.90
75719;DHT22;64340;48.534;-3.036;2023-08-06T11:13:20;19.10;68.80
75719;DHT22;64340;48.534;-3.036;2023-08-06T11:15:46;19.10;68.70
75719;DHT22;64340;48.534;-3.036;2023-08-06T11:18:12;19.10;68.80
75719;DHT22;64340;48.534;-3.036;2023-08-06T11:20:38;19.10;68.90
75719;DHT22;64340;48.534;-3.036;2023-08-06T11:23:04;19.10;68.90
75719;DHT22;64340;48.534;-3.036;2023-08-06T11:25:30;19.10;68.80
75719;DHT22;64340;48.534;-3.036;2023-08-06T11:27:55;19.10;68.90
75719;DHT22;64340;48.534;-3.036;2023-08-06T11:30:21;19.10;69.00
75719;DHT22;64340;48.534;-3.036;2023-08-06T11:32:47;19.10;68.90
75719;DHT22;64340;48.534;-3.036;2023-08-06T11:35:13;19.10;68.80
75719;DHT22;64340;48.534;-3.036;2023-08-06T11:37:39;19.10;68.70
75719;DHT22;64340;48.534;-3.036;2023-08-06T11:40:08;19.20;68.60
75719;DHT22;64340;48.534;-3.036;2023-08-06T11:42:36;19.10;68.60
75719;DHT22;64340;48.534;-3.036;2023-08-06T11:45:02;19.10;68.80
75719;DHT22;64340;48.534;-3.036;2023-08-06T11:47:28;19.20;68.60
75719;DHT22;64340;48.534;-3.036;2023-08-06T11:49:53;19.20;68.80
75719;DHT22;64340;48.534;-3.036;2023-08-06T11:52:20;19.20;68.70
75719;DHT22;64340;48.534;-3.036;2023-08-06T11:54:47;19.20;68.70
75719;DHT22;64340;48.534;-3.036;2023-08-06T11:57:12;19.20;68.70
75719;DHT22;64340;48.534;-3.036;2023-08-06T11:59:38;19.20;68.60
75719;DHT22;64340;48.534;-3.036;2023-08-06T12:02:05;19.20;68.70
75719;DHT22;64340;48.534;-3.036;2023-08-06T12:07:16;19.20;68.60
75719;DHT22;64340;48.534;-3.036;2023-08-06T12:09:42;19.20;68.70
75719;DHT22;64340;48.534;-3.036;2023-08-06T12:12:07;19.20;68.60
75719;DHT22;64340;48.534;-3.036;2023-08-06T12:14:33;19.20;68.50
75719;DHT22;64340;48.534;-3.036;2023-08-06T12:17:01;19.20;68.60
75719;DHT22;64340;48.534;-3.036;2023-08-06T12:19:27;19.20;68.50
75719;DHT22;64340;48.534;-3.036;2023-08-06T12:21:53;19.30;68.40
75719;DHT22;64340;48.534;-3.036;2023-08-06T12:24:18;19.30;68.50
75719;DHT22;64340;48.534;-3.036;2023-08-06T12:26:44;19.30;68.50
75719;DHT22;64340;48.534;-3.036;2023-08-06T12:29:09;19.30;68.40
75719;DHT22;64340;48.534;-3.036;2023-08-06T12:31:35;19.30;68.50
75719;DHT22;64340;48.534;-3.036;2023-08-06T12:34:01;19.30;68.50
75719;DHT22;64340;48.534;-3.036;2023-08-06T12:36:26;19.30;68.50
75719;DHT22;64340;48.534;-3.036;2023-08-06T12:38:52;19.30;68.60
75719;DHT22;64340;48.534;-3.036;2023-08-06T12:41:17;19.30;68.50
75719;DHT22;64340;48.534;-3.036;2023-08-06T12:43:43;19.30;68.40
75719;DHT22;64340;48.534;-3.036;2023-08-06T12:46:08;19.30;68.30
75719;DHT22;64340;48.534;-3.036;2023-08-06T12:48:35;19.30;68.50
75719;DHT22;64340;48.534;-3.036;2023-08-06T12:51:00;19.20;68.60
75719;DHT22;64340;48.534;-3.036;2023-08-06T12:53:26;19.20;68.50
75719;DHT22;64340;48.534;-3.036;2023-08-06T12:55:52;19.30;68.60
75719;DHT22;64340;48.534;-3.036;2023-08-06T12:58:17;19.30;68.60
75719;DHT22;64340;48.534;-3.036;2023-08-06T13:00:43;19.30;68.50
75719;DHT22;64340;48.534;-3.036;2023-08-06T13:03:08;19.30;68.60
75719;DHT22;64340;48.534;-3.036;2023-08-06T13:05:34;19.20;68.80
75719;DHT22;64340;48.534;-3.036;2023-08-06T13:08:00;19.20;68.60
75719;DHT22;64340;48.534;-3.036;2023-08-06T13:10:25;19.30;68.70
75719;DHT22;64340;48.534;-3.036;2023-08-06T13:12:52;19.30;68.60
75719;DHT22;64340;48.534;-3.036;2023-08-06T13:15:18;19.30;68.50
75719;DHT22;64340;48.534;-3.036;2023-08-06T13:17:46;19.40;68.50
75719;DHT22;64340;48.534;-3.036;2023-08-06T13:20:11;19.40;68.50
75719;DHT22;64340;48.534;-3.036;2023-08-06T13:22:37;19.40;68.50
75719;DHT22;64340;48.534;-3.036;2023-08-06T13:25:03;19.40;68.50
75719;DHT22;64340;48.534;-3.036;2023-08-06T13:27:28;19.40;68.40
75719;DHT22;64340;48.534;-3.036;2023-08-06T13:29:54;19.40;68.30
75719;DHT22;64340;48.534;-3.036;2023-08-06T13:32:20;19.40;68.20
75719;DHT22;64340;48.534;-3.036;2023-08-06T13:34:45;19.40;68.30
75719;DHT22;64340;48.534;-3.036;2023-08-06T13:37:12;19.40;68.30
75719;DHT22;64340;48.534;-3.036;2023-08-06T13:39:38;19.40;68.20
75719;DHT22;64340;48.534;-3.036;2023-08-06T13:42:03;19.40;68.30
75719;DHT22;64340;48.534;-3.036;2023-08-06T13:44:29;19.40;68.30
75719;DHT22;64340;48.534;-3.036;2023-08-06T13:46:54;19.40;68.40
75719;DHT22;64340;48.534;-3.036;2023-08-06T13:49:20;19.40;68.40
75719;DHT22;64340;48.534;-3.036;2023-08-06T13:51:46;19.50;68.30
75719;DHT22;64340;48.534;-3.036;2023-08-06T13:54:11;19.50;68.20
75719;DHT22;64340;48.534;-3.036;2023-08-06T13:56:37;19.50;68.20
75719;DHT22;64340;48.534;-3.036;2023-08-06T13:59:03;19.50;68.20
75719;DHT22;64340;48.534;-3.036;2023-08-06T14:01:29;19.50;68.20
75719;DHT22;64340;48.534;-3.036;2023-08-06T14:03:54;19.50;68.10
75719;DHT22;64340;48.534;-3.036;2023-08-06T14:06:20;19.50;68.20
75719;DHT22;64340;48.534;-3.036;2023-08-06T14:08:46;19.50;68.10
75719;DHT22;64340;48.534;-3.036;2023-08-06T14:11:11;19.50;68.20
75719;DHT22;64340;48.534;-3.036;2023-08-06T14:13:37;19.50;68.20
75719;DHT22;64340;48.534;-3.036;2023-08-06T14:16:02;19.50;68.20
75719;DHT22;64340;48.534;-3.036;2023-08-06T14:18:28;19.50;68.00
75719;DHT22;64340;48.534;-3.036;2023-08-06T14:20:54;19.50;68.10
75719;DHT22;64340;48.534;-3.036;2023-08-06T14:23:19;19.50;68.20
75719;DHT22;64340;48.534;-3.036;2023-08-06T14:25:45;19.50;68.00
75719;DHT22;64340;48.534;-3.036;2023-08-06T14:28:11;19.50;68.00
75719;DHT22;64340;48.534;-3.036;2023-08-06T14:30:36;19.50;68.10
75719;DHT22;64340;48.534;-3.036;2023-08-06T14:33:02;19.50;68.00
75719;DHT22;64340;48.534;-3.036;2023-08-06T14:35:28;19.50;68.00
75719;DHT22;64340;48.534;-3.036;2023-08-06T14:37:54;19.50;67.90
75719;DHT22;64340;48.534;-3.036;2023-08-06T14:40:19;19.50;67.90
75719;DHT22;64340;48.534;-3.036;2023-08-06T14:42:45;19.50;68.00
75719;DHT22;64340;48.534;-3.036;2023-08-06T14:45:10;19.50;67.90
75719;DHT22;64340;48.534;-3.036;2023-08-06T14:47:36;19.50;67.90
75719;DHT22;64340;48.534;-3.036;2023-08-06T14:50:02;19.50;67.90
75719;DHT22;64340;48.534;-3.036;2023-08-06T14:52:27;19.50;68.00
75719;DHT22;64340;48.534;-3.036;2023-08-06T14:54:53;19.50;68.00
75719;DHT22;64340;48.534;-3.036;2023-08-06T14:57:20;19.50;67.90
75719;DHT22;64340;48.534;-3.036;2023-08-06T14:59:47;19.50;67.90
75719;DHT22;64340;48.534;-3.036;2023-08-06T15:02:12;19.50;67.70
75719;DHT22;64340;48.534;-3.036;2023-08-06T15:04:38;19.50;67.70
75719;DHT22;64340;48.534;-3.036;2023-08-06T15:07:04;19.50;67.70
75719;DHT22;64340;48.534;-3.036;2023-08-06T15:09:29;19.60;67.80
75719;DHT22;64340;48.534;-3.036;2023-08-06T15:11:55;19.50;67.80
75719;DHT22;64340;48.534;-3.036;2023-08-06T15:14:20;19.50;67.80
75719;DHT22;64340;48.534;-3.036;2023-08-06T15:16:46;19.50;67.90